createdAt,value
2023-11-07T00:01:06.906Z,5.69
2023-11-07T00:04:10.569Z,5.79
2023-11-07T00:07:16.310Z,5.85
2023-11-07T00:10:20.304Z,5.99
2023-11-07T00:13:23.398Z,6.04
2023-11-07T00:16:28.944Z,6.05
2023-11-07T00:19:32.790Z,6.06
2023-11-07T00:22:37.902Z,6.11
2023-11-07T00:25:44.271Z,6.21
2023-11-07T00:28:50.475Z,6.26
2023-11-07T00:31:55.460Z,6.24
2023-11-07T00:35:00.993Z,6.08
2023-11-07T00:38:07.324Z,6.22
2023-11-07T00:41:14.609Z,6.14
2023-11-07T00:44:19.558Z,6.00
2023-11-07T00:47:23.202Z,5.92
2023-11-07T00:50:26.366Z,5.92
2023-11-07T00:53:30.863Z,5.98
2023-11-07T00:56:34.304Z,6.06
2023-11-07T00:59:37.851Z,6.02
2023-11-07T01:02:45.362Z,5.90
2023-11-07T01:05:49.996Z,5.65
2023-11-07T01:08:53.485Z,5.62
2023-11-07T01:11:57.521Z,5.52
2023-11-07T01:15:01.078Z,5.40
2023-11-07T01:18:08.484Z,5.55
2023-11-07T01:21:12.039Z,5.62
2023-11-07T01:24:16.204Z,5.76
2023-11-07T01:27:19.319Z,5.89
2023-11-07T01:30:23.473Z,6.05
2023-11-07T01:33:27.328Z,6.06
2023-11-07T01:36:31.429Z,6.01
2023-11-07T01:39:35.391Z,6.06
2023-11-07T01:42:48.601Z,6.10
2023-11-07T01:45:52.271Z,6.09
2023-11-07T01:49:00.022Z,6.10
2023-11-07T01:52:08.121Z,5.84
2023-11-07T01:55:18.116Z,6.09
2023-11-07T01:58:28.225Z,6.04
2023-11-07T02:01:39.745Z,6.11
2023-11-07T02:05:21.404Z,6.16
2023-11-07T02:09:10.623Z,6.25
2023-11-07T02:12:15.081Z,6.43
2023-11-07T02:15:30.916Z,6.55
2023-11-07T02:18:35.577Z,6.64
2023-11-07T02:21:39.466Z,6.69
2023-11-07T02:24:43.194Z,6.69
2023-11-07T02:27:49.491Z,6.69
2023-11-07T02:30:55.754Z,6.68
2023-11-07T02:33:59.342Z,6.70
2023-11-07T02:37:03.469Z,6.61
2023-11-07T02:40:07.945Z,6.70
2023-11-07T02:43:11.599Z,6.75
2023-11-07T02:46:15.243Z,6.79
2023-11-07T02:49:18.820Z,6.82
2023-11-07T02:52:22.903Z,6.88
2023-11-07T02:55:29.889Z,6.89
2023-11-07T02:58:33.097Z,7.01
2023-11-07T03:01:37.309Z,7.06
2023-11-07T03:04:40.788Z,7.07
2023-11-07T03:07:44.458Z,7.16
2023-11-07T03:10:47.922Z,7.19
2023-11-07T03:13:52.211Z,7.25
2023-11-07T03:16:56.864Z,7.30
2023-11-07T03:20:01.023Z,7.44
2023-11-07T03:23:04.232Z,7.49
2023-11-07T03:26:08.850Z,7.51
2023-11-07T03:29:16.904Z,7.55
2023-11-07T03:32:20.712Z,7.59
2023-11-07T03:35:28.658Z,7.60
2023-11-07T03:38:34.779Z,7.63
2023-11-07T03:41:46.402Z,7.64
2023-11-07T03:44:50.634Z,7.64
2023-11-07T03:47:57.178Z,7.64
2023-11-07T03:51:00.689Z,7.60
2023-11-07T03:54:04.331Z,7.62
2023-11-07T03:57:08.546Z,7.63
2023-11-07T04:00:12.321Z,7.65
2023-11-07T04:03:16.944Z,7.67
2023-11-07T04:06:21.134Z,7.66
2023-11-07T04:09:25.304Z,7.65
2023-11-07T04:12:28.555Z,7.56
2023-11-07T04:15:33.346Z,7.49
2023-11-07T04:18:36.781Z,7.52
2023-11-07T04:21:40.611Z,7.63
2023-11-07T04:24:45.250Z,7.67
2023-11-07T04:27:48.927Z,7.64
2023-11-07T04:30:52.129Z,7.61
2023-11-07T04:33:56.763Z,7.58
2023-11-07T04:37:00.236Z,7.51
2023-11-07T04:40:04.189Z,7.56
2023-11-07T04:43:09.199Z,7.56
2023-11-07T04:46:14.394Z,7.62
2023-11-07T04:52:24.338Z,7.63
2023-11-07T04:55:27.797Z,7.62
2023-11-07T04:58:31.415Z,7.66
2023-11-07T05:01:37.410Z,7.67
2023-11-07T05:04:41.724Z,7.69
2023-11-07T05:07:46.561Z,7.51
2023-11-07T05:10:50.165Z,7.54
2023-11-07T05:13:54.149Z,7.50
2023-11-07T05:16:57.833Z,7.40
2023-11-07T05:20:01.401Z,7.35
2023-11-07T05:23:05.245Z,7.20
2023-11-07T05:26:08.848Z,7.19
2023-11-07T05:29:16.974Z,7.14
2023-11-07T05:32:20.588Z,7.20
2023-11-07T05:35:24.268Z,7.22
2023-11-07T05:38:27.913Z,7.19
2023-11-07T05:41:32.343Z,7.18
2023-11-07T05:44:35.565Z,7.22
2023-11-07T05:47:42.838Z,7.02
2023-11-07T05:50:46.664Z,7.20
2023-11-07T05:53:53.052Z,7.22
2023-11-07T05:56:56.543Z,7.22
2023-11-07T06:00:00.765Z,7.26
2023-11-07T06:03:04.511Z,7.29
2023-11-07T06:06:08.787Z,7.27
2023-11-07T06:09:12.160Z,7.34
2023-11-07T06:12:15.883Z,7.40
2023-11-07T06:15:23.618Z,7.45
2023-11-07T06:18:37.914Z,7.47
2023-11-07T06:21:41.283Z,7.47
2023-11-07T06:24:45.734Z,7.49
2023-11-07T06:27:49.127Z,7.45
2023-11-07T06:30:59.883Z,7.51
2023-11-07T06:41:35.672Z,7.53
2023-11-07T06:44:40.050Z,7.55
2023-11-07T06:51:26.196Z,7.69
2023-11-07T06:54:32.824Z,7.64
2023-11-07T06:57:39.718Z,7.57
2023-11-07T07:00:43.883Z,7.67
2023-11-07T07:03:48.767Z,7.72
2023-11-07T07:06:56.576Z,7.72
2023-11-07T07:09:59.971Z,7.71
2023-11-07T07:13:05.901Z,7.70
2023-11-07T07:16:10.335Z,7.69
2023-11-07T07:19:19.047Z,7.72
2023-11-07T07:22:29.114Z,7.81
2023-11-07T07:25:40.157Z,7.79
2023-11-07T07:28:44.797Z,7.84
2023-11-07T07:31:48.436Z,7.83
2023-11-07T07:34:52.926Z,7.86
2023-11-07T07:45:37.291Z,8.00
2023-11-07T07:48:47.335Z,7.98
2023-11-07T07:55:53.652Z,8.00
2023-11-07T07:59:05.711Z,8.04
2023-11-07T08:03:11.464Z,8.13
2023-11-07T08:06:36.829Z,8.13
2023-11-07T08:28:20.069Z,8.31
2023-11-07T08:37:54.008Z,8.26
2023-11-07T08:41:41.375Z,8.86
2023-11-07T08:46:05.394Z,9.05
2023-11-07T08:53:58.284Z,9.11
2023-11-07T08:57:46.454Z,9.27
2023-11-07T09:01:45.626Z,9.13
2023-11-07T09:05:50.188Z,9.47
2023-11-07T09:14:40.251Z,9.71
2023-11-07T09:23:13.635Z,9.49
2023-11-07T09:27:34.724Z,9.33
2023-11-07T09:30:46.191Z,9.54
2023-11-07T09:34:10.606Z,9.48
2023-11-07T09:37:25.294Z,9.55
2023-11-07T09:40:43.539Z,9.43
2023-11-07T09:43:49.466Z,9.49
2023-11-07T09:47:04.020Z,9.59
2023-11-07T09:50:10.348Z,9.70
2023-11-07T09:53:23.758Z,9.79
2023-11-07T09:56:33.371Z,9.96
2023-11-07T09:59:55.632Z,9.82
2023-11-07T10:03:36.944Z,9.94
2023-11-07T10:07:12.893Z,9.94
2023-11-07T10:10:32.329Z,10.02
2023-11-07T10:14:15.415Z,10.01
2023-11-07T10:17:48.967Z,9.57
2023-11-07T10:21:17.693Z,9.99
2023-11-07T10:24:45.905Z,10.01
2023-11-07T10:28:19.281Z,9.70
2023-11-07T10:32:13.802Z,9.62
2023-11-07T10:36:08.208Z,9.64
2023-11-07T10:39:42.201Z,9.57
2023-11-07T10:42:53.885Z,9.87
2023-11-07T10:46:09.758Z,9.98
2023-11-07T10:49:28.060Z,9.86
2023-11-07T10:52:37.042Z,9.91
2023-11-07T10:56:11.671Z,10.13
2023-11-07T10:59:37.717Z,10.13
2023-11-07T11:02:44.995Z,10.11
2023-11-07T11:05:52.179Z,10.01
2023-11-07T11:09:22.041Z,9.56
2023-11-07T11:12:30.339Z,9.47
2023-11-07T11:15:44.709Z,9.63
2023-11-07T11:19:02.339Z,9.58
2023-11-07T11:22:28.231Z,9.74
2023-11-07T11:26:15.477Z,9.77
2023-11-07T11:29:34.332Z,9.94
2023-11-07T11:32:48.281Z,9.85
2023-11-07T11:35:58.521Z,10.04
2023-11-07T11:39:06.053Z,9.98
2023-11-07T11:42:14.869Z,10.23
2023-11-07T11:45:40.347Z,10.19
2023-11-07T11:48:53.079Z,10.35
2023-11-07T11:52:08.590Z,10.50
2023-11-07T11:55:16.709Z,10.50
2023-11-07T11:58:30.188Z,10.57
2023-11-07T12:02:06.611Z,10.98
2023-11-07T12:05:20.291Z,11.34
2023-11-07T12:08:41.503Z,11.40
2023-11-07T12:11:46.320Z,11.67
2023-11-07T12:15:04.291Z,11.78
2023-11-07T12:18:09.764Z,12.18
2023-11-07T12:21:24.812Z,11.62
2023-11-07T12:24:31.253Z,11.63
2023-11-07T12:27:42.042Z,11.50
2023-11-07T12:30:57.140Z,11.47
2023-11-07T12:34:12.364Z,11.29
2023-11-07T12:37:26.483Z,11.03
2023-11-07T12:40:34.848Z,11.02
2023-11-07T12:43:49.346Z,11.05
2023-11-07T12:47:01.629Z,11.18
2023-11-07T12:50:11.209Z,11.11
2023-11-07T12:53:19.678Z,11.02
2023-11-07T12:56:29.444Z,11.26
2023-11-07T12:59:36.179Z,11.57
2023-11-07T13:02:46.678Z,11.75
2023-11-07T13:06:20.490Z,12.04
2023-11-07T13:09:33.572Z,11.99
2023-11-07T13:12:37.876Z,12.54
2023-11-07T13:15:43.317Z,12.29
2023-11-07T13:18:58.585Z,12.14
2023-11-07T13:22:05.251Z,11.91
2023-11-07T13:25:12.593Z,12.14
2023-11-07T13:28:16.431Z,12.23
2023-11-07T13:31:23.247Z,12.02
2023-11-07T13:34:28.081Z,11.77
2023-11-07T13:37:32.569Z,11.41
2023-11-07T13:40:36.650Z,11.28
2023-11-07T13:43:43.517Z,11.14
2023-11-07T13:46:48.240Z,11.01
2023-11-07T13:49:57.400Z,10.90
2023-11-07T13:53:01.510Z,10.71
2023-11-07T13:56:10.011Z,10.74
2023-11-07T13:59:14.668Z,10.75
2023-11-07T14:02:19.785Z,10.80
2023-11-07T14:05:23.889Z,10.83
2023-11-07T14:08:27.374Z,10.85
2023-11-07T14:11:32.232Z,10.76
2023-11-07T14:14:42.296Z,10.75
2023-11-07T14:17:47.796Z,10.77
2023-11-07T14:20:59.821Z,10.75
2023-11-07T14:24:06.649Z,10.71
2023-11-07T14:27:22.115Z,10.37
2023-11-07T14:30:37.759Z,10.42
2023-11-07T14:33:43.685Z,10.37
2023-11-07T14:36:56.600Z,10.08
2023-11-07T14:40:11.861Z,10.28
2023-11-07T14:43:17.633Z,10.15
2023-11-07T14:46:22.171Z,10.08
2023-11-07T14:49:27.800Z,9.53
2023-11-07T14:52:31.997Z,9.56
2023-11-07T14:55:36.972Z,9.53
2023-11-07T14:58:43.109Z,9.39
2023-11-07T15:01:51.021Z,9.33
2023-11-07T15:04:54.745Z,9.07
2023-11-07T15:08:06.592Z,9.25
2023-11-07T15:11:12.759Z,9.07
2023-11-07T15:14:16.753Z,8.96
2023-11-07T15:17:23.025Z,8.88
2023-11-07T15:20:33.071Z,8.79
2023-11-07T15:23:36.782Z,8.72
2023-11-07T15:26:40.829Z,8.74
2023-11-07T15:29:44.318Z,8.71
2023-11-07T15:32:52.424Z,8.82
2023-11-07T15:35:57.809Z,8.87
2023-11-07T15:39:01.709Z,8.82
2023-11-07T15:42:05.491Z,8.94
2023-11-07T15:45:10.912Z,8.68
2023-11-07T15:48:14.216Z,8.85
2023-11-07T15:51:19.041Z,8.81
2023-11-07T15:54:25.105Z,8.71
2023-11-07T15:57:29.335Z,8.76
2023-11-07T16:00:41.784Z,8.59
2023-11-07T16:03:49.601Z,8.89
2023-11-07T16:06:53.358Z,8.45
2023-11-07T16:09:59.087Z,8.85
2023-11-07T16:13:04.175Z,8.88
2023-11-07T16:16:10.259Z,8.86
2023-11-07T16:19:14.165Z,8.86
2023-11-07T16:22:19.301Z,8.79
2023-11-07T16:25:22.740Z,8.71
2023-11-07T16:28:29.735Z,8.99
2023-11-07T16:31:37.579Z,8.95
2023-11-07T16:34:45.719Z,8.95
2023-11-07T16:37:49.748Z,9.06
2023-11-07T16:40:54.925Z,9.03
2023-11-07T16:43:58.838Z,9.05
2023-11-07T16:47:09.657Z,9.06
2023-11-07T16:50:16.854Z,9.05
2023-11-07T16:53:21.097Z,9.05
2023-11-07T16:56:30.328Z,9.06
2023-11-07T16:59:40.935Z,9.03
2023-11-07T17:02:48.283Z,8.99
2023-11-07T17:05:55.508Z,8.98
2023-11-07T17:09:06.142Z,8.97
2023-11-07T17:12:22.117Z,8.94
2023-11-07T17:15:33.772Z,8.84
2023-11-07T17:18:42.304Z,8.84
2023-11-07T17:21:56.153Z,8.71
2023-11-07T17:25:02.243Z,8.65
2023-11-07T17:28:09.563Z,8.66
2023-11-07T21:35:11.123Z,9.06
2023-11-07T21:38:20.148Z,9.04
2023-11-07T21:41:25.155Z,9.04
2023-11-07T21:44:31.874Z,8.95
2023-11-07T21:47:38.219Z,9.03
2023-11-07T21:50:43.171Z,8.93
2023-11-07T21:53:49.412Z,9.01
2023-11-07T21:56:57.967Z,8.91
2023-11-07T22:00:01.559Z,8.89
2023-11-07T22:03:09.488Z,8.94
2023-11-07T22:06:14.278Z,8.96
2023-11-07T22:09:22.013Z,8.97
2023-11-07T22:12:27.204Z,8.96
2023-11-07T22:15:33.638Z,8.89
2023-11-07T22:18:38.381Z,8.98
2023-11-07T22:21:42.213Z,8.97
2023-11-07T22:24:48.444Z,8.99
2023-11-07T22:27:54.413Z,9.01
2023-11-07T22:30:58.089Z,8.96
2023-11-07T22:34:04.250Z,9.04
2023-11-07T22:37:08.101Z,9.08
2023-11-07T22:40:12.319Z,9.09
2023-11-07T22:43:17.188Z,9.09
2023-11-07T22:46:20.426Z,9.10
2023-11-07T22:49:26.581Z,9.11
2023-11-07T22:52:30.370Z,9.11
2023-11-07T22:55:34.365Z,9.11
2023-11-07T22:58:39.174Z,9.13
2023-11-07T23:01:42.834Z,9.13
2023-11-07T23:04:46.303Z,9.13
2023-11-07T23:07:50.701Z,9.14
2023-11-07T23:10:54.075Z,9.06
2023-11-07T23:13:58.441Z,9.10
2023-11-07T23:17:01.868Z,9.14
2023-11-07T23:20:10.600Z,8.99
2023-11-07T23:23:14.831Z,9.07
2023-11-07T23:26:24.093Z,9.02
2023-11-07T23:29:30.578Z,8.99
2023-11-07T23:32:40.084Z,8.96
2023-11-07T23:35:43.473Z,9.04
2023-11-07T23:38:46.949Z,9.05
2023-11-07T23:41:50.995Z,9.00
2023-11-07T23:44:57.958Z,9.00
2023-11-07T23:48:01.708Z,9.07
2023-11-07T23:51:05.554Z,9.10
2023-11-07T23:54:09.890Z,9.10
2023-11-07T23:57:13.704Z,9.11
